Time;durP1;ratioP1;P1;durP2;ratioP2;P2;SDS_P1;SDS_P2;PMS_P1;PMS_P2;Temp;Humidity;BMP_temperature;BMP_pressure;BME280_temperature;BME280_humidity;BME280_pressure;Samples;Min_cycle;Max_cycle;Signal;HPM_P1;HPM_P2
2021/12/01 00:00:18;;;;;;;;;;;;;;;6.93;59.56;98704.44;4399123;32;20046;-93
2021/12/01 00:02:44;;;;;;;;;;;;;;;6.93;59.56;98714.78;4410561;32;19977;-92
2021/12/01 00:05:09;;;;;;;;;;;;;;;6.89;59.56;98721.81;4411164;32;20359;-94
2021/12/01 00:07:36;;;;;;;;;;;;;;;7.06;59.57;98716.88;4410261;32;19998;-92
2021/12/01 00:10:05;;;;;;;;;;;;;;;7.08;59.57;98716.84;4409625;32;19997;-95
2021/12/01 00:12:30;;;;;;;;;;;;;;;7.08;59.57;98716.84;4410179;32;20047;-94
2021/12/01 00:14:56;;;;;;;;;;;;;;;7.13;59.57;98712.37;4410642;32;19982;-93
2021/12/01 00:17:21;;;;;;;;;;;;;;;7.14;59.57;98713.22;4410273;32;20008;-93
2021/12/01 00:19:46;;;;;;;;;;;;;;;7.04;59.57;98712.66;4410259;32;20005;-92
2021/12/01 00:22:11;;;;;;;;;;;;;;;7.01;59.56;98729.16;4413395;32;20013;-93
2021/12/01 00:24:37;;;;;;;;;;;;;;;7.00;59.56;98735.22;4396496;32;20003;-94
2021/12/01 00:27:02;;;;;;;;;;;;;;;7.00;59.56;98719.69;4410145;32;20008;-93
2021/12/01 00:29:27;;;;;;;;;;;;;;;6.98;59.57;98728.41;4410257;32;19986;-93
2021/12/01 00:31:52;;;;;;;;;;;;;;;7.03;59.57;98727.34;4410123;32;19986;-93
2021/12/01 00:34:18;;;;;;;;;;;;;;;7.11;59.58;98729.69;4410367;32;20012;-93
2021/12/01 00:36:44;;;;;;;;;;;;;;;7.06;59.57;98734.16;4412752;32;19982;-93
2021/12/01 00:39:09;;;;;;;;;;;;;;;7.12;59.58;98731.38;4411958;32;19982;-93
2021/12/01 00:41:34;;;;;;;;;;;;;;;7.20;59.58;98736.28;4410727;32;19998;-94
2021/12/01 00:44:00;;;;;;;;;;;;;;;7.22;59.58;98745.69;4410313;32;20016;-94
2021/12/01 00:46:37;;;;;;;;;;;;;;;6.84;59.56;98736.63;4410132;32;20655;-93
2021/12/01 00:49:03;;;;;;;;;;;;;;;6.72;59.56;98750.81;4411514;32;20416;-91
2021/12/01 00:51:28;;;;;;;;;;;;;;;6.68;59.55;98735.44;4409846;32;19986;-94
2021/12/01 00:53:53;;;;;;;;;;;;;;;6.60;59.55;98745.16;4410637;32;20307;-93
2021/12/01 00:56:18;;;;;;;;;;;;;;;6.66;59.55;98729.47;4417895;32;20013;-90
2021/12/01 00:58:44;;;;;;;;;;;;;;;6.49;59.53;98742.94;4433000;32;20021;-92
2021/12/01 01:01:09;;;;;;;;;;;;;;;6.76;59.56;98730.84;4413501;32;20032;-94
2021/12/01 01:03:35;;;;;;;;;;;;;;;6.61;59.54;98742.53;4412770;32;19974;-94
2021/12/01 01:06:00;;;;;;;;;;;;;;;6.48;59.53;98733.50;4413668;32;20366;-93
2021/12/01 01:08:25;;;;;;;;;;;;;;;6.76;59.55;98731.69;4413748;32;20033;-93
2021/12/01 01:16:22;;;;;;;;;;;;;;;6.71;59.55;98743.94;4415101;32;20005;-93
2021/12/01 01:16:23;;;;;;;;;;;;;;;6.60;59.55;98734.81;4421241;32;19988;-91
2021/12/01 01:18:50;;;;;;;;;;;;;;;6.43;59.54;98750.91;4415961;32;19993;-93
2021/12/01 01:21:16;;;;;;;;;;;;;;;6.36;59.53;98750.22;4412504;32;20001;-92
2021/12/01 01:23:41;;;;;;;;;;;;;;;6.60;59.55;98747.75;4412006;32;20037;-88
2021/12/01 01:26:07;;;;;;;;;;;;;;;6.72;59.56;98750.81;4412746;32;20295;-89
2021/12/01 01:28:33;;;;;;;;;;;;;;;6.65;59.54;98738.13;4415089;32;19989;-90
2021/12/01 01:30:58;;;;;;;;;;;;;;;6.47;59.53;98747.31;4411673;32;20008;-90
2021/12/01 01:33:23;;;;;;;;;;;;;;;6.49;59.54;98752.44;4412080;32;20263;-91
2021/12/01 01:35:48;;;;;;;;;;;;;;;6.54;59.54;98740.19;4415862;32;20000;-88
2021/12/01 01:38:14;;;;;;;;;;;;;;;6.38;59.53;98750.16;4415574;32;20005;-91
2021/12/01 01:40:39;;;;;;;;;;;;;;;6.55;59.54;98747.06;4413420;32;20035;-90
2021/12/01 01:43:05;;;;;;;;;;;;;;;6.53;59.54;98754.88;4413314;32;19986;-90
2021/12/01 01:45:30;;;;;;;;;;;;;;;6.49;59.54;98749.84;4414689;32;20009;-91
2021/12/01 01:48:06;;;;;;;;;;;;;;;6.61;59.54;98752.03;4413626;32;20048;-88
2021/12/01 01:50:36;;;;;;;;;;;;;;;6.57;59.54;98751.28;4413565;32;19990;-90
2021/12/01 01:53:02;;;;;;;;;;;;;;;6.43;59.54;98743.13;4413706;32;19982;-88
2021/12/01 01:55:28;;;;;;;;;;;;;;;6.32;59.53;98756.38;4414059;32;20019;-90
2021/12/01 01:57:53;;;;;;;;;;;;;;;6.28;59.53;98759.94;4412219;32;19994;-89
2021/12/01 02:00:18;;;;;;;;;;;;;;;6.56;59.54;98774.59;4410537;32;20330;-91
2021/12/01 02:02:45;;;;;;;;;;;;;;;6.50;59.53;98774.81;4411946;32;20038;-91
2021/12/01 02:05:10;;;;;;;;;;;;;;;6.67;59.55;98777.72;4412203;32;19982;-90
2021/12/01 02:07:35;;;;;;;;;;;;;;;6.63;59.54;98779.56;4411243;32;20338;-90
2021/12/01 02:10:01;;;;;;;;;;;;;;;6.64;59.54;98783.00;4410984;32;20005;-90
2021/12/01 02:12:26;;;;;;;;;;;;;;;6.88;59.56;98784.78;4410929;32;19997;-90
2021/12/01 02:14:51;;;;;;;;;;;;;;;6.91;59.56;98779.50;4412934;32;20315;-90
2021/12/01 02:17:16;;;;;;;;;;;;;;;7.00;59.56;98768.00;4411240;32;20005;-88
2021/12/01 02:19:42;;;;;;;;;;;;;;;6.90;59.56;98779.56;4413364;32;20314;-91
2021/12/01 02:22:07;;;;;;;;;;;;;;;6.86;59.56;98781.41;4410667;32;19993;-91
2021/12/01 02:24:32;;;;;;;;;;;;;;;6.82;59.56;98786.72;4411170;32;19986;-92
2021/12/01 02:26:57;;;;;;;;;;;;;;;6.86;59.56;98791.75;4410866;32;20433;-92
2021/12/01 02:29:23;;;;;;;;;;;;;;;6.71;59.55;98779.31;4410551;32;20025;-92
2021/12/01 02:31:50;;;;;;;;;;;;;;;6.73;59.55;98786.12;4410740;32;19996;-91
2021/12/01 02:34:17;;;;;;;;;;;;;;;6.89;59.56;98781.31;4411350;32;20009;-91
2021/12/01 02:36:44;;;;;;;;;;;;;;;6.93;59.56;98780.31;4412084;32;20016;-91
2021/12/01 02:39:11;;;;;;;;;;;;;;;7.04;59.57;98773.03;4410619;32;20047;-92
2021/12/01 02:41:36;;;;;;;;;;;;;;;6.98;59.57;98778.41;4398282;32;20099;-92
2021/12/01 02:44:02;;;;;;;;;;;;;;;6.96;59.56;98785.38;4410900;32;20315;-90
2021/12/01 02:46:27;;;;;;;;;;;;;;;7.04;59.57;98778.19;4411483;32;20407;-91
2021/12/01 02:48:53;;;;;;;;;;;;;;;7.06;59.57;98785.91;4410930;32;19986;-90
2021/12/01 02:51:19;;;;;;;;;;;;;;;7.07;59.57;98798.78;4410800;32;19994;-92
2021/12/01 02:53:44;;;;;;;;;;;;;;;7.16;59.57;98789.06;4410934;32;19982;-93
2021/12/01 02:56:10;;;;;;;;;;;;;;;7.19;59.58;98788.94;4411192;32;19985;-93
2021/12/01 02:58:40;;;;;;;;;;;;;;;7.21;59.57;98795.75;4421594;32;20325;-91
2021/12/01 03:01:07;;;;;;;;;;;;;;;7.01;59.56;98798.16;4413591;32;19961;-90
2021/12/01 03:03:32;;;;;;;;;;;;;;;7.10;59.57;98787.53;4413284;32;20037;-90
2021/12/01 03:05:57;;;;;;;;;;;;;;;6.78;59.55;98785.97;4412808;32;20032;-90
2021/12/01 03:08:22;;;;;;;;;;;;;;;6.71;59.54;98781.87;4413576;32;20028;-91
2021/12/01 03:10:48;;;;;;;;;;;;;;;6.78;59.55;98771.28;4413198;32;19978;-91
2021/12/01 03:13:14;;;;;;;;;;;;;;;6.83;59.56;98765.97;4413092;32;20555;-90
2021/12/01 03:15:39;;;;;;;;;;;;;;;6.79;59.55;98792.81;4413425;32;19989;-92
2021/12/01 03:18:04;;;;;;;;;;;;;;;6.74;59.56;98784.38;4413052;32;20016;-89
2021/12/01 03:20:30;;;;;;;;;;;;;;;6.71;59.55;98780.16;4412598;32;28183;-92
2021/12/01 03:22:55;;;;;;;;;;;;;;;6.87;59.56;98770.16;4412447;32;22665;-92
2021/12/01 03:25:22;;;;;;;;;;;;;;;6.66;59.55;98789.81;4413632;32;19978;-92
2021/12/01 03:27:47;;;;;;;;;;;;;;;6.79;59.55;98795.41;4414983;32;20017;-92
2021/12/01 03:30:13;;;;;;;;;;;;;;;6.81;59.56;98785.00;4412945;32;19978;-93
2021/12/01 03:32:39;;;;;;;;;;;;;;;6.71;59.55;98797.41;4413577;32;19974;-93
2021/12/01 03:35:08;;;;;;;;;;;;;;;6.84;59.56;98803.87;4413209;32;19994;-93
2021/12/01 03:37:33;;;;;;;;;;;;;;;6.77;59.55;98800.62;4413537;32;20020;-93
2021/12/01 03:39:59;;;;;;;;;;;;;;;6.87;59.56;98803.78;4413395;32;20293;-92
2021/12/01 03:42:24;;;;;;;;;;;;;;;6.83;59.56;98804.75;4413918;32;20262;-94
2021/12/01 03:44:49;;;;;;;;;;;;;;;6.95;59.57;98806.97;4412943;32;19990;-93
2021/12/01 03:47:15;;;;;;;;;;;;;;;6.82;59.56;98805.66;4413637;32;23822;-92
2021/12/01 03:49:40;;;;;;;;;;;;;;;6.98;59.57;98811.19;4413811;32;20011;-93
2021/12/01 03:52:05;;;;;;;;;;;;;;;7.07;59.57;98818.66;4412880;32;20018;-93
2021/12/01 03:54:31;;;;;;;;;;;;;;;7.03;59.57;98817.91;4412943;32;20035;-91
2021/12/01 03:56:56;;;;;;;;;;;;;;;6.86;59.55;98817.63;4414040;32;20013;-92
2021/12/01 03:59:21;;;;;;;;;;;;;;;6.88;59.56;98802.91;4414601;32;19970;-90
2021/12/01 04:01:46;;;;;;;;;;;;;;;6.78;59.55;98809.25;4412655;32;19982;-91
2021/12/01 04:04:12;;;;;;;;;;;;;;;6.78;59.55;98804.06;4413957;32;20027;-89
2021/12/01 04:06:37;;;;;;;;;;;;;;;6.77;59.55;98804.97;4413841;32;19998;-90
2021/12/01 04:09:03;;;;;;;;;;;;;;;6.86;59.56;98798.63;4411704;32;20006;-88
2021/12/01 04:11:28;;;;;;;;;;;;;;;6.85;59.56;98802.13;4411823;32;20024;-87
2021/12/01 04:13:56;;;;;;;;;;;;;;;6.90;59.56;98808.03;4412817;32;20303;-88
2021/12/01 04:16:21;;;;;;;;;;;;;;;6.96;59.57;98820.75;4412519;32;19978;-86
2021/12/01 04:18:46;;;;;;;;;;;;;;;6.93;59.56;98810.50;4411454;32;26932;-88
2021/12/01 04:21:12;;;;;;;;;;;;;;;6.90;59.56;98819.22;4412019;32;19986;-89
2021/12/01 04:23:37;;;;;;;;;;;;;;;6.76;59.55;98814.47;4411398;32;20001;-91
2021/12/01 04:26:03;;;;;;;;;;;;;;;6.99;59.56;98818.91;4411600;32;20036;-89
2021/12/01 04:28:28;;;;;;;;;;;;;;;7.09;59.58;98822.88;4411611;32;19997;-93
2021/12/01 04:30:54;;;;;;;;;;;;;;;7.06;59.56;98838.50;4412112;32;20016;-93
2021/12/01 04:33:19;;;;;;;;;;;;;;;7.05;59.57;98841.97;4411835;32;20008;-91
2021/12/01 04:35:46;;;;;;;;;;;;;;;6.89;59.56;98830.47;4411551;32;20037;-92
2021/12/01 04:38:11;;;;;;;;;;;;;;;7.04;59.57;98835.13;4411998;32;20325;-93
2021/12/01 04:40:37;;;;;;;;;;;;;;;7.06;59.57;98838.50;4412079;32;20047;-92
2021/12/01 04:43:02;;;;;;;;;;;;;;;7.02;59.57;98847.25;4411635;32;20400;-92
2021/12/01 04:45:29;;;;;;;;;;;;;;;7.23;59.58;98845.72;4411508;32;20345;-93
2021/12/01 04:47:55;;;;;;;;;;;;;;;7.11;59.57;98855.66;4414058;32;20698;-88
2021/12/01 04:50:22;;;;;;;;;;;;;;;6.99;59.57;98859.47;4412326;32;19992;-88
2021/12/01 04:52:47;;;;;;;;;;;;;;;6.89;59.56;98871.00;4412145;32;19990;-90
2021/12/01 04:55:12;;;;;;;;;;;;;;;7.03;59.57;98864.47;4411774;32;19978;-91
2021/12/01 04:57:38;;;;;;;;;;;;;;;7.04;59.57;98884.28;4411782;32;27018;-92
2021/12/01 05:00:04;;;;;;;;;;;;;;;7.12;59.58;98890.97;4412910;32;19987;-90
2021/12/01 05:02:29;;;;;;;;;;;;;;;7.15;59.57;98893.47;4411908;32;20049;-90
2021/12/01 05:04:54;;;;;;;;;;;;;;;7.11;59.58;98902.22;4412203;32;23869;-90
2021/12/01 05:07:19;;;;;;;;;;;;;;;7.20;59.57;98905.34;4412321;32;20299;-92
2021/12/01 05:09:45;;;;;;;;;;;;;;;7.10;59.58;98903.97;4411738;32;20229;-93
2021/12/01 05:12:10;;;;;;;;;;;;;;;7.14;59.57;98905.56;4411771;32;19996;-92
2021/12/01 05:14:35;;;;;;;;;;;;;;;7.35;59.59;98907.47;4412003;32;20758;-90
2021/12/01 05:17:01;;;;;;;;;;;;;;;7.54;59.59;98912.03;4413205;32;19977;-89
2021/12/01 05:19:26;;;;;;;;;;;;;;;7.50;59.59;98923.38;4411958;32;19973;-89
2021/12/01 05:21:51;;;;;;;;;;;;;;;7.53;59.59;98937.06;4412219;32;20794;-90
2021/12/01 05:24:16;;;;;;;;;;;;;;;7.60;59.60;98948.94;4412178;32;20042;-90
2021/12/01 05:26:42;;;;;;;;;;;;;;;7.76;59.61;98953.59;4412833;32;19992;-91
2021/12/01 05:29:07;;;;;;;;;;;;;;;7.92;59.62;98955.63;4412364;32;19986;-90
2021/12/01 05:31:32;;;;;;;;;;;;;;;7.98;59.62;98964.94;4411920;32;20038;-95
2021/12/01 05:33:57;;;;;;;;;;;;;;;8.22;59.64;98961.50;4412537;32;20014;-94
2021/12/01 05:36:22;;;;;;;;;;;;;;;8.24;59.64;98962.28;4411704;32;19982;-95
2021/12/01 05:38:48;;;;;;;;;;;;;;;8.18;59.63;98967.69;4411630;32;20037;-94
2021/12/01 05:41:13;;;;;;;;;;;;;;;8.26;59.64;98964.81;4411896;32;20009;-94
2021/12/01 05:43:38;;;;;;;;;;;;;;;8.39;59.65;98965.28;4413339;32;20004;-95
2021/12/01 05:46:04;;;;;;;;;;;;;;;8.39;59.65;98971.31;4411987;32;20015;-94
2021/12/01 05:48:29;;;;;;;;;;;;;;;8.42;59.64;98976.38;4411736;32;20027;-94
2021/12/01 05:50:54;;;;;;;;;;;;;;;8.39;59.65;98988.63;4412728;32;19982;-93
2021/12/01 05:53:19;;;;;;;;;;;;;;;8.35;59.64;98987.87;4412707;32;20012;-93
2021/12/01 05:55:45;;;;;;;;;;;;;;;8.25;59.64;98995.09;4414807;32;19993;-92
2021/12/01 05:58:10;;;;;;;;;;;;;;;8.44;59.65;98990.16;4413621;32;20311;-93
2021/12/01 06:00:35;;;;;;;;;;;;;;;8.30;59.64;98993.22;4425770;32;20032;-94
2021/12/01 06:03:00;;;;;;;;;;;;;;;8.34;59.64;98993.13;4411567;32;20065;-90
2021/12/01 06:05:27;;;;;;;;;;;;;;;8.21;59.63;99003.88;4411621;32;20016;-93
2021/12/01 06:07:52;;;;;;;;;;;;;;;8.31;59.64;98992.31;4412464;32;19970;-90
2021/12/01 06:10:17;;;;;;;;;;;;;;;8.49;59.65;99001.19;4412881;32;20008;-93
2021/12/01 06:12:44;;;;;;;;;;;;;;;8.45;59.65;98998.78;4414658;32;20031;-91
2021/12/01 06:15:10;;;;;;;;;;;;;;;8.53;59.66;99007.16;4412614;32;19974;-89
2021/12/01 06:17:35;;;;;;;;;;;;;;;8.40;59.65;99006.72;4413492;32;20046;-91
2021/12/01 06:20:01;;;;;;;;;;;;;;;8.37;59.64;99013.75;4413055;32;19986;-92
2021/12/01 06:22:26;;;;;;;;;;;;;;;8.51;59.64;99017.53;4411978;32;20006;-92
2021/12/01 06:24:51;;;;;;;;;;;;;;;8.54;59.65;99011.44;4413236;32;20045;-93
2021/12/01 06:27:17;;;;;;;;;;;;;;;8.66;59.66;99020.50;4414328;32;19977;-93
2021/12/01 06:29:42;;;;;;;;;;;;;;;8.63;59.66;99021.47;4414059;32;20017;-92
2021/12/01 06:32:07;;;;;;;;;;;;;;;8.66;59.66;99036.06;4413436;32;19982;-92
2021/12/01 06:34:32;;;;;;;;;;;;;;;8.71;59.66;99035.00;4412970;32;19978;-92
2021/12/01 06:36:58;;;;;;;;;;;;;;;8.74;59.66;99040.06;4413132;32;19973;-92
2021/12/01 06:39:23;;;;;;;;;;;;;;;8.75;59.67;99038.34;4413471;32;19990;-92
2021/12/01 06:41:48;;;;;;;;;;;;;;;8.66;59.65;99038.66;4413335;32;20254;-92
2021/12/01 06:44:14;;;;;;;;;;;;;;;8.72;59.66;99046.22;4413969;32;20036;-90
2021/12/01 06:46:40;;;;;;;;;;;;;;;8.81;59.66;99057.16;4412924;32;20496;-90
2021/12/01 06:49:07;;;;;;;;;;;;;;;8.85;59.67;99055.28;4413819;32;20032;-92
2021/12/01 06:51:35;;;;;;;;;;;;;;;8.77;59.67;99057.31;4413492;32;19995;-93
2021/12/01 06:54:02;;;;;;;;;;;;;;;8.79;59.67;99063.28;4413451;32;19977;-92
2021/12/01 06:56:28;;;;;;;;;;;;;;;8.90;59.68;99062.00;4413180;32;19993;-93
2021/12/01 06:58:53;;;;;;;;;;;;;;;8.79;59.67;99071.09;4413560;32;19982;-91
2021/12/01 07:01:18;;;;;;;;;;;;;;;8.89;59.66;99062.06;4413810;32;20044;-93
2021/12/01 07:03:46;;;;;;;;;;;;;;;8.85;59.67;99061.31;4412974;32;20004;-94
2021/12/01 07:06:11;;;;;;;;;;;;;;;8.86;59.67;99064.75;4413072;32;19978;-93
2021/12/01 07:08:38;;;;;;;;;;;;;;;8.90;59.67;99066.34;4412641;32;20037;-93
2021/12/01 07:11:06;;;;;;;;;;;;;;;8.95;59.67;99050.59;4413028;32;20005;-92
2021/12/01 07:13:35;;;;;;;;;;;;;;;9.13;59.69;99049.91;4413449;32;19950;-93
2021/12/01 07:16:03;;;;;;;;;;;;;;;8.98;59.68;99034.91;4413620;32;20018;-94
2021/12/01 07:18:28;;;;;;;;;;;;;;;8.78;59.67;99033.91;4412818;32;20002;-94
2021/12/01 07:20:54;;;;;;;;;;;;;;;8.89;59.67;99029.16;4414444;32;20064;-92
2021/12/01 07:23:19;;;;;;;;;;;;;;;9.06;59.68;99019.91;4413220;32;20005;-92
2021/12/01 07:25:44;;;;;;;;;;;;;;;8.99;59.68;99034.88;4412823;32;19997;-92
2021/12/01 07:28:10;;;;;;;;;;;;;;;9.07;59.68;99047.56;4412629;32;20012;-93
2021/12/01 07:30:37;;;;;;;;;;;;;;;8.98;59.68;99034.91;4412692;32;20322;-90
2021/12/01 07:33:02;;;;;;;;;;;;;;;9.13;59.68;99040.37;4413139;32;20049;-92
2021/12/01 07:35:27;;;;;;;;;;;;;;;9.20;59.69;99044.44;4412762;32;19974;-92
2021/12/01 07:37:53;;;;;;;;;;;;;;;9.25;59.69;99039.09;4412994;32;19982;-92
2021/12/01 07:40:18;;;;;;;;;;;;;;;9.37;59.70;99041.19;4412940;32;20008;-93
2021/12/01 07:42:43;;;;;;;;;;;;;;;9.48;59.70;99041.66;4412894;32;20307;-92
2021/12/01 07:45:09;;;;;;;;;;;;;;;9.39;59.70;99043.75;4412918;32;19999;-92
2021/12/01 07:47:34;;;;;;;;;;;;;;;9.31;59.69;99038.00;4413139;32;20029;-93
2021/12/01 07:50:00;;;;;;;;;;;;;;;9.42;59.71;99034.06;4413641;32;20005;-93
2021/12/01 07:52:25;;;;;;;;;;;;;;;9.51;59.71;99033.75;4412699;32;19981;-92
2021/12/01 07:54:50;;;;;;;;;;;;;;;9.48;59.70;99027.81;4412825;32;20012;-92
2021/12/01 07:57:15;;;;;;;;;;;;;;;9.49;59.71;99025.16;4412458;32;20025;-91
2021/12/01 07:59:41;;;;;;;;;;;;;;;9.57;59.70;99013.59;4413100;32;20000;-92
2021/12/01 08:02:06;;;;;;;;;;;;;;;9.50;59.71;99015.63;4413642;32;20266;-92
2021/12/01 08:04:31;;;;;;;;;;;;;;;9.69;59.71;99019.16;4414354;32;19978;-92
2021/12/01 08:06:57;;;;;;;;;;;;;;;9.72;59.71;99020.81;4415543;32;19985;-91
2021/12/01 08:09:23;;;;;;;;;;;;;;;9.88;59.73;99016.66;4414633;32;20003;-91
2021/12/01 08:11:49;;;;;;;;;;;;;;;9.90;59.73;99014.84;4412983;32;20271;-91
2021/12/01 08:14:14;;;;;;;;;;;;;;;9.98;59.73;99019.75;4412915;32;19989;-91
2021/12/01 08:16:39;;;;;;;;;;;;;;;9.87;59.72;99014.12;4412773;32;20310;-92
2021/12/01 08:19:04;;;;;;;;;;;;;;;9.92;59.73;99014.78;4413186;32;19994;-92
2021/12/01 08:21:30;;;;;;;;;;;;;;;9.89;59.73;99013.16;4412671;32;20084;-92
2021/12/01 08:23:55;;;;;;;;;;;;;;;10.01;59.73;99010.06;4412826;32;20020;-91
2021/12/01 08:26:20;;;;;;;;;;;;;;;9.81;59.73;99013.47;4412835;32;19993;-92
2021/12/01 08:28:46;;;;;;;;;;;;;;;9.97;59.73;99007.66;4412570;32;20087;-91
2021/12/01 08:31:20;;;;;;;;;;;;;;;9.98;59.73;99009.34;4412714;32;19974;-92
2021/12/01 08:33:46;;;;;;;;;;;;;;;10.01;59.73;99004.00;4414633;32;19974;-92
2021/12/01 08:36:11;;;;;;;;;;;;;;;9.89;59.72;99013.16;4412520;32;20338;-91
2021/12/01 08:38:37;;;;;;;;;;;;;;;9.99;59.73;99019.69;4412371;32;20274;-96
2021/12/01 08:41:03;;;;;;;;;;;;;;;10.08;59.73;99014.09;4412394;32;20258;-93
2021/12/01 08:43:28;;;;;;;;;;;;;;;10.12;59.74;99014.81;4412062;32;19985;-91
2021/12/01 08:45:53;;;;;;;;;;;;;;;10.23;59.74;99024.81;4411127;32;19993;-89
2021/12/01 08:48:19;;;;;;;;;;;;;;;10.20;59.74;99012.75;4412106;32;20006;-92
2021/12/01 08:50:45;;;;;;;;;;;;;;;10.05;59.73;99013.38;4412405;32;19978;-94
2021/12/01 08:53:10;;;;;;;;;;;;;;;10.11;59.74;99005.31;4412693;32;20012;-89
2021/12/01 08:55:37;;;;;;;;;;;;;;;10.11;59.74;99002.72;4412533;32;19999;-91
2021/12/01 08:58:02;;;;;;;;;;;;;;;10.02;59.74;98998.75;4412314;32;20380;-94
2021/12/01 09:00:28;;;;;;;;;;;;;;;10.25;59.75;98999.56;4412445;32;20001;-93
2021/12/01 09:02:53;;;;;;;;;;;;;;;10.32;59.76;99004.44;4412340;32;20298;-93
2021/12/01 09:05:18;;;;;;;;;;;;;;;10.33;59.75;99011.31;4412541;32;19982;-93
2021/12/01 09:07:43;;;;;;;;;;;;;;;10.38;59.75;99003.31;4412424;32;20016;-92
2021/12/01 09:10:09;;;;;;;;;;;;;;;10.49;59.76;98995.91;4411913;32;20835;-93
2021/12/01 09:12:34;;;;;;;;;;;;;;;10.59;59.76;98993.75;4412082;32;20006;-94
2021/12/01 09:14:59;;;;;;;;;;;;;;;10.57;59.76;98987.75;4412695;32;20368;-91
2021/12/01 09:17:25;;;;;;;;;;;;;;;10.80;59.78;98971.97;4412656;32;20061;-91
2021/12/01 09:19:50;;;;;;;;;;;;;;;10.85;59.78;98977.81;4412967;32;19997;-89
2021/12/01 09:22:16;;;;;;;;;;;;;;;10.63;59.77;98967.50;4413784;32;20038;-90
2021/12/01 09:24:42;;;;;;;;;;;;;;;10.75;59.77;98968.72;4412449;32;20008;-91
2021/12/01 09:27:07;;;;;;;;;;;;;;;10.93;59.79;98969.66;4412051;32;20002;-92
2021/12/01 09:29:33;;;;;;;;;;;;;;;11.15;59.79;98970.34;4411820;32;19974;-95
2021/12/01 09:31:58;;;;;;;;;;;;;;;11.18;59.80;98971.97;4411379;32;19990;-92
2021/12/01 09:34:24;;;;;;;;;;;;;;;11.22;59.81;98979.56;4412003;32;19992;-93
2021/12/01 09:36:49;;;;;;;;;;;;;;;11.31;59.80;98979.13;4411485;32;20008;-93
2021/12/01 09:39:14;;;;;;;;;;;;;;;11.39;59.81;98984.00;4411951;32;19996;-92
2021/12/01 09:41:39;;;;;;;;;;;;;;;11.49;59.81;98974.81;4411644;32;20243;-93
2021/12/01 09:44:05;;;;;;;;;;;;;;;11.50;59.81;98965.22;4411801;32;19986;-92
2021/12/01 09:46:30;;;;;;;;;;;;;;;11.46;59.82;98953.25;4411536;32;20001;-93
2021/12/01 09:48:56;;;;;;;;;;;;;;;11.58;59.82;98950.03;4410222;32;19998;-92
2021/12/01 09:51:21;;;;;;;;;;;;;;;11.69;59.83;98942.56;4409901;32;20030;-92
2021/12/01 09:53:46;;;;;;;;;;;;;;;11.68;59.83;98941.72;4410288;32;19993;-91
2021/12/01 09:56:12;;;;;;;;;;;;;;;11.61;59.82;98940.34;4410950;32;20099;-93
2021/12/01 09:58:37;;;;;;;;;;;;;;;11.78;59.83;98936.91;4411910;32;19982;-92
2021/12/01 10:01:03;;;;;;;;;;;;;;;11.77;59.83;98942.16;4412139;32;20011;-93
2021/12/01 10:03:29;;;;;;;;;;;;;;;11.69;59.83;98947.78;4412106;32;19993;-92
2021/12/01 10:06:17;;;;;;;;;;;;;;;11.65;59.82;98943.63;4412440;32;20005;-92
2021/12/01 10:08:42;;;;;;;;;;;;;;;11.77;59.83;98929.97;4413155;32;20096;-92
2021/12/01 10:11:08;;;;;;;;;;;;;;;11.76;59.83;98933.50;4412328;32;19982;-93
2021/12/01 10:13:39;;;;;;;;;;;;;;;11.74;59.82;98930.12;4412050;32;20053;-92
2021/12/01 10:16:05;;;;;;;;;;;;;;;11.74;59.82;98930.12;4412445;32;20020;-93
2021/12/01 10:18:34;;;;;;;;;;;;;;;11.79;59.83;98927.31;4412960;32;19958;-91
2021/12/01 10:21:03;;;;;;;;;;;;;;;11.79;59.83;98927.31;4412797;32;19954;-92
2021/12/01 10:23:28;;;;;;;;;;;;;;;11.81;59.83;98934.16;4415963;32;19993;-90
2021/12/01 10:25:54;;;;;;;;;;;;;;;11.83;59.84;98939.28;4417141;32;20016;-92
2021/12/01 10:28:33;;;;;;;;;;;;;;;11.80;59.83;98940.28;4412072;32;20028;-92
2021/12/01 10:30:58;;;;;;;;;;;;;;;11.79;59.83;98941.19;4411564;32;19990;-92
2021/12/01 10:33:23;;;;;;;;;;;;;;;11.89;59.83;98947.66;4411559;32;20005;-92
2021/12/01 10:35:49;;;;;;;;;;;;;;;11.91;59.84;98938.00;4411725;32;19993;-92
2021/12/01 10:38:14;;;;;;;;;;;;;;;11.90;59.84;98936.31;4411756;32;19981;-93
2021/12/01 10:40:40;;;;;;;;;;;;;;;11.87;59.83;98938.25;4411736;32;19994;-93
2021/12/01 10:43:06;;;;;;;;;;;;;;;11.75;59.83;98937.03;4411843;32;20009;-92
2021/12/01 10:45:38;;;;;;;;;;;;;;;11.54;59.82;98928.50;4411861;32;20662;-91
2021/12/01 10:48:04;;;;;;;;;;;;;;;11.51;59.81;98923.44;4411920;32;19977;-93
2021/12/01 10:50:31;;;;;;;;;;;;;;;11.61;59.82;98919.50;4412079;32;19972;-93
2021/12/01 10:53:06;;;;;;;;;;;;;;;11.67;59.82;98923.53;4411753;32;20005;-92
2021/12/01 10:55:32;;;;;;;;;;;;;;;11.60;59.83;98917.81;4412162;32;19993;-93
2021/12/01 10:57:58;;;;;;;;;;;;;;;11.51;59.81;98910.41;4409241;32;20072;-92
2021/12/01 11:00:24;;;;;;;;;;;;;;;11.58;59.82;98905.72;4409782;32;19958;-91
2021/12/01 11:02:49;;;;;;;;;;;;;;;11.55;59.82;98908.50;4408994;32;20071;-92
2021/12/01 11:05:24;;;;;;;;;;;;;;;11.54;59.82;98902.44;4409884;32;20016;-91
2021/12/01 11:07:49;;;;;;;;;;;;;;;11.36;59.80;98904.22;4408819;32;20035;-93
2021/12/01 11:10:18;;;;;;;;;;;;;;;11.34;59.81;98907.78;4408841;32;19986;-93
2021/12/01 11:12:44;;;;;;;;;;;;;;;11.46;59.82;98903.75;4409488;32;19969;-92
2021/12/01 11:15:18;;;;;;;;;;;;;;;11.45;59.81;98899.47;4409992;32;20627;-93
2021/12/01 11:17:43;;;;;;;;;;;;;;;11.37;59.80;98892.03;4409871;32;20073;-92
2021/12/01 11:20:09;;;;;;;;;;;;;;;11.40;59.81;98885.81;4408729;32;21718;-92
2021/12/01 11:22:36;;;;;;;;;;;;;;;11.35;59.81;98883.41;4409341;32;20041;-93
2021/12/01 11:25:21;;;;;;;;;;;;;;;11.47;59.81;98872.41;4409330;32;20108;-92
2021/12/01 11:27:47;;;;;;;;;;;;;;;11.50;59.81;98858.37;4408736;32;19986;-92
2021/12/01 11:30:12;;;;;;;;;;;;;;;11.61;59.82;98861.31;4410086;32;19973;-92
2021/12/01 11:32:37;;;;;;;;;;;;;;;11.74;59.82;98857.13;4408659;32;20033;-91
2021/12/01 11:35:03;;;;;;;;;;;;;;;11.92;59.84;98845.81;4409248;32;21307;-93
2021/12/01 11:37:28;;;;;;;;;;;;;;;12.02;59.84;98838.31;4408974;32;19998;-92
2021/12/01 11:39:55;;;;;;;;;;;;;;;12.15;59.85;98825.50;4408957;32;19989;-92
2021/12/01 11:42:20;;;;;;;;;;;;;;;12.31;59.86;98818.53;4408992;32;20603;-92
2021/12/01 11:44:45;;;;;;;;;;;;;;;12.37;59.87;98817.38;4409131;32;20026;-92
2021/12/01 11:47:11;;;;;;;;;;;;;;;12.41;59.86;98813.66;4408892;32;19985;-92
2021/12/01 11:49:36;;;;;;;;;;;;;;;12.55;59.87;98808.53;4409584;32;20034;-90
2021/12/01 11:52:03;;;;;;;;;;;;;;;12.59;59.88;98800.44;4410655;32;20236;-91
2021/12/01 11:54:31;;;;;;;;;;;;;;;12.72;59.88;98791.91;4409754;32;20006;-92
2021/12/01 11:57:00;;;;;;;;;;;;;;;12.73;59.89;98777.94;4396715;32;20035;-92
2021/12/01 11:59:26;;;;;;;;;;;;;;;12.91;59.89;98789.97;4409030;32;20016;-92
2021/12/01 12:01:58;;;;;;;;;;;;;;;12.83;59.89;98781.72;4421803;32;20418;-92
2021/12/01 12:04:24;;;;;;;;;;;;;;;13.14;59.91;98762.50;4422029;32;19973;-92
2021/12/01 12:06:58;;;;;;;;;;;;;;;13.15;59.90;98764.19;4421314;32;19951;-92
2021/12/01 12:09:23;;;;;;;;;;;;;;;13.32;59.91;98763.25;4421289;32;20020;-92
2021/12/01 12:11:52;;;;;;;;;;;;;;;13.35;59.92;98752.63;4408421;32;20026;-92
2021/12/01 12:14:19;;;;;;;;;;;;;;;13.43;59.92;98758.22;4421390;32;20024;-92
2021/12/01 12:17:23;;;;;;;;;;;;;;;13.63;59.93;98747.41;4421572;32;20669;-92
2021/12/01 12:19:52;;;;;;;;;;;;;;;13.59;59.93;98751.16;4362122;32;19959;-91
2021/12/01 12:22:21;;;;;;;;;;;;;;;13.67;59.93;98748.06;4350647;32;19996;-93
2021/12/01 12:24:52;;;;;;;;;;;;;;;13.69;59.93;98757.50;4376076;32;19993;-92
2021/12/01 12:27:26;;;;;;;;;;;;;;;13.58;59.94;98743.41;4421413;32;19950;-93
2021/12/01 12:29:51;;;;;;;;;;;;;;;13.61;59.93;98749.28;4409335;32;20002;-91
2021/12/01 12:32:18;;;;;;;;;;;;;;;13.63;59.93;98743.97;4409107;32;20037;-92
2021/12/01 12:34:50;;;;;;;;;;;;;;;13.77;59.94;98749.22;4408499;32;20036;-92
2021/12/01 12:37:25;;;;;;;;;;;;;;;13.84;59.95;98750.50;4421735;32;19994;-92
2021/12/01 12:39:53;;;;;;;;;;;;;;;13.74;59.94;98744.16;4421134;32;19989;-92
2021/12/01 12:42:19;;;;;;;;;;;;;;;13.84;59.94;98734.81;4408530;32;20001;-91
2021/12/01 12:44:48;;;;;;;;;;;;;;;13.78;59.93;98728.19;4421189;32;20012;-92
2021/12/01 12:47:22;;;;;;;;;;;;;;;13.90;59.95;98723.97;4408690;32;19986;-91
2021/12/01 12:49:51;;;;;;;;;;;;;;;13.76;59.94;98714.38;4420989;32;19994;-91